sensor_id;sensor_type;location;lat;lon;timestamp;P1;durP1;ratioP1;P2;durP2;ratioP2
41923;SDS011;27613;48.116;11.656;2023-06-26T00:02:24;5.95;;;5.10;;
41923;SDS011;27613;48.116;11.656;2023-06-26T00:04:50;6.53;;;5.22;;
41923;SDS011;27613;48.116;11.656;2023-06-26T00:07:18;6.05;;;4.95;;
41923;SDS011;27613;48.116;11.656;2023-06-26T00:09:44;5.80;;;4.93;;
41923;SDS011;27613;48.116;11.656;2023-06-26T00:12:10;6.13;;;4.97;;
41923;SDS011;27613;48.116;11.656;2023-06-26T00:14:36;6.40;;;5.05;;
41923;SDS011;27613;48.116;11.656;2023-06-26T00:17:01;6.40;;;5.15;;
41923;SDS011;27613;48.116;11.656;2023-06-26T00:19:27;6.05;;;5.18;;
41923;SDS011;27613;48.116;11.656;2023-06-26T00:21:53;5.50;;;4.75;;
41923;SDS011;27613;48.116;11.656;2023-06-26T00:24:18;7.28;;;5.18;;
41923;SDS011;27613;48.116;11.656;2023-06-26T00:26:46;6.50;;;4.88;;
41923;SDS011;27613;48.116;11.656;2023-06-26T00:29:12;7.03;;;5.18;;
41923;SDS011;27613;48.116;11.656;2023-06-26T00:31:38;5.90;;;4.68;;
41923;SDS011;27613;48.116;11.656;2023-06-26T00:34:05;5.88;;;4.95;;
41923;SDS011;27613;48.116;11.656;2023-06-26T00:36:31;6.28;;;4.97;;
41923;SDS011;27613;48.116;11.656;2023-06-26T00:38:56;5.53;;;4.72;;
41923;SDS011;27613;48.116;11.656;2023-06-26T00:41:22;7.28;;;5.32;;
41923;SDS011;27613;48.116;11.656;2023-06-26T00:43:48;6.18;;;5.20;;
41923;SDS011;27613;48.116;11.656;2023-06-26T00:46:13;5.72;;;4.90;;
41923;SDS011;27613;48.116;11.656;2023-06-26T00:48:40;5.55;;;4.25;;
41923;SDS011;27613;48.116;11.656;2023-06-26T00:51:07;6.68;;;5.38;;
41923;SDS011;27613;48.116;11.656;2023-06-26T00:53:33;5.05;;;4.20;;
41923;SDS011;27613;48.116;11.656;2023-06-26T00:55:59;5.85;;;4.90;;
41923;SDS011;27613;48.116;11.656;2023-06-26T00:58:25;5.25;;;4.72;;
41923;SDS011;27613;48.116;11.656;2023-06-26T01:00:51;6.95;;;5.05;;
41923;SDS011;27613;48.116;11.656;2023-06-26T01:03:17;5.80;;;4.35;;
41923;SDS011;27613;48.116;11.656;2023-06-26T01:05:44;5.03;;;4.15;;
41923;SDS011;27613;48.116;11.656;2023-06-26T01:08:11;5.20;;;4.28;;
41923;SDS011;27613;48.116;11.656;2023-06-26T01:10:38;6.20;;;4.93;;
41923;SDS011;27613;48.116;11.656;2023-06-26T01:13:04;7.32;;;4.90;;
41923;SDS011;27613;48.116;11.656;2023-06-26T01:15:30;7.80;;;4.82;;
41923;SDS011;27613;48.116;11.656;2023-06-26T01:17:55;6.15;;;4.55;;
41923;SDS011;27613;48.116;11.656;2023-06-26T01:20:24;6.32;;;4.93;;
41923;SDS011;27613;48.116;11.656;2023-06-26T01:23:04;6.18;;;4.93;;
41923;SDS011;27613;48.116;11.656;2023-06-26T01:25:40;6.38;;;4.97;;
41923;SDS011;27613;48.116;11.656;2023-06-26T01:28:16;4.95;;;4.40;;
41923;SDS011;27613;48.116;11.656;2023-06-26T01:30:44;5.63;;;4.65;;
41923;SDS011;27613;48.116;11.656;2023-06-26T01:33:10;5.97;;;4.45;;
41923;SDS011;27613;48.116;11.656;2023-06-26T01:35:37;5.85;;;4.57;;
41923;SDS011;27613;48.116;11.656;2023-06-26T01:38:16;7.18;;;4.70;;
41923;SDS011;27613;48.116;11.656;2023-06-26T01:40:43;6.20;;;4.80;;
41923;SDS011;27613;48.116;11.656;2023-06-26T01:43:11;6.00;;;4.60;;
41923;SDS011;27613;48.116;11.656;2023-06-26T01:46:01;4.78;;;4.15;;
41923;SDS011;27613;48.116;11.656;2023-06-26T01:48:34;5.95;;;4.43;;
41923;SDS011;27613;48.116;11.656;2023-06-26T01:51:22;5.10;;;4.50;;
41923;SDS011;27613;48.116;11.656;2023-06-26T01:53:52;4.90;;;4.05;;
41923;SDS011;27613;48.116;11.656;2023-06-26T01:56:21;5.63;;;4.57;;
41923;SDS011;27613;48.116;11.656;2023-06-26T01:58:49;7.18;;;4.85;;
41923;SDS011;27613;48.116;11.656;2023-06-26T02:01:19;6.18;;;4.20;;
41923;SDS011;27613;48.116;11.656;2023-06-26T02:03:45;5.63;;;5.00;;
41923;SDS011;27613;48.116;11.656;2023-06-26T02:06:10;6.63;;;4.80;;
41923;SDS011;27613;48.116;11.656;2023-06-26T02:08:36;5.75;;;4.40;;
41923;SDS011;27613;48.116;11.656;2023-06-26T02:11:01;5.22;;;4.22;;
41923;SDS011;27613;48.116;11.656;2023-06-26T02:13:27;6.72;;;5.13;;
41923;SDS011;27613;48.116;11.656;2023-06-26T02:15:52;5.13;;;4.25;;
41923;SDS011;27613;48.116;11.656;2023-06-26T02:18:18;6.18;;;4.65;;
41923;SDS011;27613;48.116;11.656;2023-06-26T02:20:46;5.25;;;4.45;;
41923;SDS011;27613;48.116;11.656;2023-06-26T02:23:11;6.57;;;5.15;;
41923;SDS011;27613;48.116;11.656;2023-06-26T02:25:37;5.30;;;3.60;;
41923;SDS011;27613;48.116;11.656;2023-06-26T02:28:03;5.85;;;4.55;;
41923;SDS011;27613;48.116;11.656;2023-06-26T02:30:28;5.50;;;4.40;;
41923;SDS011;27613;48.116;11.656;2023-06-26T02:32:54;6.13;;;4.43;;
41923;SDS011;27613;48.116;11.656;2023-06-26T02:35:20;7.30;;;4.90;;
41923;SDS011;27613;48.116;11.656;2023-06-26T02:37:45;5.20;;;4.40;;
41923;SDS011;27613;48.116;11.656;2023-06-26T02:40:11;6.20;;;4.55;;
41923;SDS011;27613;48.116;11.656;2023-06-26T02:42:36;5.35;;;4.15;;
41923;SDS011;27613;48.116;11.656;2023-06-26T02:45:02;6.50;;;4.38;;
41923;SDS011;27613;48.116;11.656;2023-06-26T02:47:28;6.30;;;4.72;;
41923;SDS011;27613;48.116;11.656;2023-06-26T02:49:53;6.28;;;4.70;;
41923;SDS011;27613;48.116;11.656;2023-06-26T02:52:19;8.05;;;4.75;;
41923;SDS011;27613;48.116;11.656;2023-06-26T02:54:45;5.40;;;4.65;;
41923;SDS011;27613;48.116;11.656;2023-06-26T02:57:10;5.97;;;4.47;;
41923;SDS011;27613;48.116;11.656;2023-06-26T02:59:39;5.88;;;4.80;;
41923;SDS011;27613;48.116;11.656;2023-06-26T03:02:05;7.53;;;5.00;;
41923;SDS011;27613;48.116;11.656;2023-06-26T03:04:31;6.05;;;4.85;;
41923;SDS011;27613;48.116;11.656;2023-06-26T03:06:56;5.10;;;4.38;;
41923;SDS011;27613;48.116;11.656;2023-06-26T03:09:22;6.25;;;4.78;;
41923;SDS011;27613;48.116;11.656;2023-06-26T03:11:47;5.03;;;3.97;;
41923;SDS011;27613;48.116;11.656;2023-06-26T03:14:13;5.72;;;4.38;;
41923;SDS011;27613;48.116;11.656;2023-06-26T03:16:39;5.32;;;4.50;;
41923;SDS011;27613;48.116;11.656;2023-06-26T03:19:05;6.22;;;4.90;;
41923;SDS011;27613;48.116;11.656;2023-06-26T03:21:31;7.40;;;5.50;;
41923;SDS011;27613;48.116;11.656;2023-06-26T03:23:57;6.03;;;4.95;;
41923;SDS011;27613;48.116;11.656;2023-06-26T03:26:23;7.68;;;4.95;;
41923;SDS011;27613;48.116;11.656;2023-06-26T03:28:52;5.90;;;4.93;;
41923;SDS011;27613;48.116;11.656;2023-06-26T03:31:18;6.57;;;4.20;;
41923;SDS011;27613;48.116;11.656;2023-06-26T03:33:44;5.45;;;4.30;;
41923;SDS011;27613;48.116;11.656;2023-06-26T03:36:09;7.13;;;5.05;;
41923;SDS011;27613;48.116;11.656;2023-06-26T03:38:35;5.95;;;4.70;;
41923;SDS011;27613;48.116;11.656;2023-06-26T03:41:00;5.18;;;4.47;;
41923;SDS011;27613;48.116;11.656;2023-06-26T03:43:26;5.65;;;4.80;;
41923;SDS011;27613;48.116;11.656;2023-06-26T03:45:51;6.57;;;4.88;;
41923;SDS011;27613;48.116;11.656;2023-06-26T03:48:17;6.65;;;4.50;;
41923;SDS011;27613;48.116;11.656;2023-06-26T03:50:42;6.93;;;5.03;;
41923;SDS011;27613;48.116;11.656;2023-06-26T03:53:08;5.95;;;4.28;;
41923;SDS011;27613;48.116;11.656;2023-06-26T03:55:33;6.78;;;4.97;;
41923;SDS011;27613;48.116;11.656;2023-06-26T03:57:59;5.55;;;4.47;;
41923;SDS011;27613;48.116;11.656;2023-06-26T04:00:24;5.82;;;4.80;;
41923;SDS011;27613;48.116;11.656;2023-06-26T04:02:50;6.72;;;5.10;;
41923;SDS011;27613;48.116;11.656;2023-06-26T04:05:16;5.60;;;4.70;;
41923;SDS011;27613;48.116;11.656;2023-06-26T04:07:42;7.30;;;5.47;;
41923;SDS011;27613;48.116;11.656;2023-06-26T04:10:07;7.50;;;5.18;;
41923;SDS011;27613;48.116;11.656;2023-06-26T04:12:34;6.10;;;4.85;;
41923;SDS011;27613;48.116;11.656;2023-06-26T04:14:59;5.82;;;4.70;;
41923;SDS011;27613;48.116;11.656;2023-06-26T04:17:25;5.75;;;4.53;;
41923;SDS011;27613;48.116;11.656;2023-06-26T04:19:50;6.80;;;4.95;;
41923;SDS011;27613;48.116;11.656;2023-06-26T04:22:16;5.85;;;4.68;;
41923;SDS011;27613;48.116;11.656;2023-06-26T04:24:41;6.88;;;4.55;;
41923;SDS011;27613;48.116;11.656;2023-06-26T04:27:08;6.18;;;5.10;;
41923;SDS011;27613;48.116;11.656;2023-06-26T04:29:34;9.80;;;5.10;;
41923;SDS011;27613;48.116;11.656;2023-06-26T04:31:59;10.20;;;5.25;;
41923;SDS011;27613;48.116;11.656;2023-06-26T04:34:25;5.53;;;4.80;;
41923;SDS011;27613;48.116;11.656;2023-06-26T04:36:51;6.20;;;4.65;;
41923;SDS011;27613;48.116;11.656;2023-06-26T04:39:17;5.68;;;4.63;;
41923;SDS011;27613;48.116;11.656;2023-06-26T04:41:43;5.95;;;5.22;;
41923;SDS011;27613;48.116;11.656;2023-06-26T04:44:09;7.45;;;5.00;;
41923;SDS011;27613;48.116;11.656;2023-06-26T04:46:35;7.53;;;5.13;;
41923;SDS011;27613;48.116;11.656;2023-06-26T04:49:01;7.30;;;5.18;;
41923;SDS011;27613;48.116;11.656;2023-06-26T04:51:28;7.07;;;4.90;;
41923;SDS011;27613;48.116;11.656;2023-06-26T04:53:54;5.55;;;4.65;;
41923;SDS011;27613;48.116;11.656;2023-06-26T04:56:19;6.28;;;4.72;;
41923;SDS011;27613;48.116;11.656;2023-06-26T04:58:45;5.15;;;4.25;;
41923;SDS011;27613;48.116;11.656;2023-06-26T05:01:10;6.45;;;5.30;;
41923;SDS011;27613;48.116;11.656;2023-06-26T05:03:38;6.18;;;5.07;;
41923;SDS011;27613;48.116;11.656;2023-06-26T05:06:04;7.95;;;5.22;;
41923;SDS011;27613;48.116;11.656;2023-06-26T05:08:29;6.03;;;4.55;;
41923;SDS011;27613;48.116;11.656;2023-06-26T05:10:55;7.50;;;5.25;;
41923;SDS011;27613;48.116;11.656;2023-06-26T05:13:24;6.00;;;5.13;;
41923;SDS011;27613;48.116;11.656;2023-06-26T05:15:51;6.38;;;4.88;;
41923;SDS011;27613;48.116;11.656;2023-06-26T05:18:17;6.32;;;5.15;;
41923;SDS011;27613;48.116;11.656;2023-06-26T05:20:43;6.28;;;4.57;;
41923;SDS011;27613;48.116;11.656;2023-06-26T05:23:10;5.40;;;4.60;;
41923;SDS011;27613;48.116;11.656;2023-06-26T05:25:37;7.22;;;5.07;;
41923;SDS011;27613;48.116;11.656;2023-06-26T05:28:03;5.93;;;4.80;;
41923;SDS011;27613;48.116;11.656;2023-06-26T05:30:30;6.70;;;4.75;;
41923;SDS011;27613;48.116;11.656;2023-06-26T05:32:59;6.20;;;4.70;;
41923;SDS011;27613;48.116;11.656;2023-06-26T05:35:25;5.78;;;4.68;;
41923;SDS011;27613;48.116;11.656;2023-06-26T05:37:55;6.53;;;4.57;;
41923;SDS011;27613;48.116;11.656;2023-06-26T05:40:21;5.22;;;4.32;;
41923;SDS011;27613;48.116;11.656;2023-06-26T05:42:47;6.20;;;4.68;;
41923;SDS011;27613;48.116;11.656;2023-06-26T05:45:13;5.63;;;4.63;;
41923;SDS011;27613;48.116;11.656;2023-06-26T05:47:38;5.30;;;4.53;;
41923;SDS011;27613;48.116;11.656;2023-06-26T05:50:05;6.40;;;4.68;;
41923;SDS011;27613;48.116;11.656;2023-06-26T05:52:32;5.88;;;4.72;;
41923;SDS011;27613;48.116;11.656;2023-06-26T05:54:58;6.88;;;4.72;;
41923;SDS011;27613;48.116;11.656;2023-06-26T05:57:25;6.40;;;4.95;;
41923;SDS011;27613;48.116;11.656;2023-06-26T05:59:53;6.38;;;5.03;;
41923;SDS011;27613;48.116;11.656;2023-06-26T06:02:18;6.60;;;4.97;;
41923;SDS011;27613;48.116;11.656;2023-06-26T06:04:44;5.80;;;4.65;;
41923;SDS011;27613;48.116;11.656;2023-06-26T06:07:10;6.57;;;5.20;;
41923;SDS011;27613;48.116;11.656;2023-06-26T06:09:35;5.28;;;4.30;;
41923;SDS011;27613;48.116;11.656;2023-06-26T06:12:01;5.90;;;5.05;;
41923;SDS011;27613;48.116;11.656;2023-06-26T06:14:28;5.45;;;4.75;;
41923;SDS011;27613;48.116;11.656;2023-06-26T06:16:54;5.45;;;4.60;;
41923;SDS011;27613;48.116;11.656;2023-06-26T06:19:19;4.95;;;4.45;;
41923;SDS011;27613;48.116;11.656;2023-06-26T06:21:45;6.85;;;4.47;;
41923;SDS011;27613;48.116;11.656;2023-06-26T06:24:10;6.88;;;4.70;;
41923;SDS011;27613;48.116;11.656;2023-06-26T06:26:36;5.93;;;4.32;;
41923;SDS011;27613;48.116;11.656;2023-06-26T06:29:01;6.15;;;4.40;;
41923;SDS011;27613;48.116;11.656;2023-06-26T06:31:28;5.18;;;4.22;;
41923;SDS011;27613;48.116;11.656;2023-06-26T06:33:56;5.25;;;4.32;;
41923;SDS011;27613;48.116;11.656;2023-06-26T06:36:22;5.95;;;4.55;;
41923;SDS011;27613;48.116;11.656;2023-06-26T06:38:47;4.82;;;4.18;;
41923;SDS011;27613;48.116;11.656;2023-06-26T06:41:13;4.60;;;3.95;;
41923;SDS011;27613;48.116;11.656;2023-06-26T06:43:39;6.00;;;4.15;;
41923;SDS011;27613;48.116;11.656;2023-06-26T06:46:04;5.70;;;4.28;;
41923;SDS011;27613;48.116;11.656;2023-06-26T06:48:30;4.22;;;3.67;;
41923;SDS011;27613;48.116;11.656;2023-06-26T06:50:56;6.15;;;4.00;;
41923;SDS011;27613;48.116;11.656;2023-06-26T06:53:22;5.65;;;4.30;;
41923;SDS011;27613;48.116;11.656;2023-06-26T06:55:48;4.63;;;3.72;;
41923;SDS011;27613;48.116;11.656;2023-06-26T06:58:14;5.18;;;4.22;;
41923;SDS011;27613;48.116;11.656;2023-06-26T07:00:42;5.40;;;4.00;;
41923;SDS011;27613;48.116;11.656;2023-06-26T07:03:08;5.15;;;4.03;;
41923;SDS011;27613;48.116;11.656;2023-06-26T07:05:33;5.85;;;3.97;;
41923;SDS011;27613;48.116;11.656;2023-06-26T07:07:59;5.00;;;3.92;;
41923;SDS011;27613;48.116;11.656;2023-06-26T07:10:24;8.88;;;4.40;;
41923;SDS011;27613;48.116;11.656;2023-06-26T07:12:50;5.35;;;3.95;;
41923;SDS011;27613;48.116;11.656;2023-06-26T07:15:16;4.72;;;3.78;;
41923;SDS011;27613;48.116;11.656;2023-06-26T07:17:42;4.25;;;3.30;;
41923;SDS011;27613;48.116;11.656;2023-06-26T07:20:07;4.57;;;4.05;;
41923;SDS011;27613;48.116;11.656;2023-06-26T07:22:35;5.57;;;3.70;;
41923;SDS011;27613;48.116;11.656;2023-06-26T07:25:04;4.05;;;3.28;;
41923;SDS011;27613;48.116;11.656;2023-06-26T07:27:33;5.53;;;3.25;;
41923;SDS011;27613;48.116;11.656;2023-06-26T07:29:59;4.35;;;3.83;;
41923;SDS011;27613;48.116;11.656;2023-06-26T07:32:25;4.22;;;3.40;;
41923;SDS011;27613;48.116;11.656;2023-06-26T07:34:50;4.60;;;3.60;;
41923;SDS011;27613;48.116;11.656;2023-06-26T07:37:16;5.30;;;3.75;;
41923;SDS011;27613;48.116;11.656;2023-06-26T07:39:41;5.00;;;3.70;;
41923;SDS011;27613;48.116;11.656;2023-06-26T07:42:07;4.57;;;3.75;;
41923;SDS011;27613;48.116;11.656;2023-06-26T07:44:32;4.78;;;3.88;;
41923;SDS011;27613;48.116;11.656;2023-06-26T07:46:58;5.47;;;3.72;;
41923;SDS011;27613;48.116;11.656;2023-06-26T07:49:24;4.80;;;3.45;;
41923;SDS011;27613;48.116;11.656;2023-06-26T07:51:49;4.63;;;3.72;;
41923;SDS011;27613;48.116;11.656;2023-06-26T07:54:15;4.35;;;3.65;;
41923;SDS011;27613;48.116;11.656;2023-06-26T07:56:59;6.03;;;3.63;;
41923;SDS011;27613;48.116;11.656;2023-06-26T07:59:26;4.50;;;3.65;;
41923;SDS011;27613;48.116;11.656;2023-06-26T08:01:53;4.68;;;3.47;;
41923;SDS011;27613;48.116;11.656;2023-06-26T08:04:26;3.92;;;3.00;;
41923;SDS011;27613;48.116;11.656;2023-06-26T08:06:53;4.47;;;3.58;;
41923;SDS011;27613;48.116;11.656;2023-06-26T08:09:22;4.82;;;3.88;;
41923;SDS011;27613;48.116;11.656;2023-06-26T08:11:49;3.88;;;3.28;;
41923;SDS011;27613;48.116;11.656;2023-06-26T08:14:15;4.35;;;3.63;;
41923;SDS011;27613;48.116;11.656;2023-06-26T08:16:41;4.25;;;3.22;;
41923;SDS011;27613;48.116;11.656;2023-06-26T08:19:08;4.25;;;3.22;;
41923;SDS011;27613;48.116;11.656;2023-06-26T08:21:35;3.97;;;3.15;;
41923;SDS011;27613;48.116;11.656;2023-06-26T08:24:01;4.90;;;3.15;;
41923;SDS011;27613;48.116;11.656;2023-06-26T08:26:27;4.65;;;3.60;;
41923;SDS011;27613;48.116;11.656;2023-06-26T08:28:53;4.40;;;3.53;;
41923;SDS011;27613;48.116;11.656;2023-06-26T08:31:18;5.28;;;3.67;;
41923;SDS011;27613;48.116;11.656;2023-06-26T08:33:44;4.20;;;3.38;;
41923;SDS011;27613;48.116;11.656;2023-06-26T08:36:10;5.07;;;3.65;;
41923;SDS011;27613;48.116;11.656;2023-06-26T08:38:35;4.35;;;3.67;;
41923;SDS011;27613;48.116;11.656;2023-06-26T08:41:01;4.72;;;3.67;;
41923;SDS011;27613;48.116;11.656;2023-06-26T08:43:26;4.60;;;3.60;;
41923;SDS011;27613;48.116;11.656;2023-06-26T08:45:53;5.15;;;3.25;;
41923;SDS011;27613;48.116;11.656;2023-06-26T08:48:19;4.15;;;3.30;;
41923;SDS011;27613;48.116;11.656;2023-06-26T08:50:47;3.22;;;2.92;;
41923;SDS011;27613;48.116;11.656;2023-06-26T08:53:56;4.13;;;3.70;;
41923;SDS011;27613;48.116;11.656;2023-06-26T08:56:11;4.47;;;3.50;;
41923;SDS011;27613;48.116;11.656;2023-06-26T08:58:39;4.78;;;3.53;;
41923;SDS011;27613;48.116;11.656;2023-06-26T09:01:05;4.25;;;3.30;;
41923;SDS011;27613;48.116;11.656;2023-06-26T09:03:31;5.30;;;3.42;;
41923;SDS011;27613;48.116;11.656;2023-06-26T09:06:00;3.25;;;2.85;;
41923;SDS011;27613;48.116;11.656;2023-06-26T09:08:25;3.88;;;3.03;;
41923;SDS011;27613;48.116;11.656;2023-06-26T09:10:51;3.25;;;2.90;;
41923;SDS011;27613;48.116;11.656;2023-06-26T09:13:17;3.92;;;3.25;;
41923;SDS011;27613;48.116;11.656;2023-06-26T09:15:43;4.28;;;3.28;;
41923;SDS011;27613;48.116;11.656;2023-06-26T09:18:10;4.88;;;3.25;;
41923;SDS011;27613;48.116;11.656;2023-06-26T09:20:36;4.32;;;3.22;;
41923;SDS011;27613;48.116;11.656;2023-06-26T09:23:02;3.75;;;3.00;;
41923;SDS011;27613;48.116;11.656;2023-06-26T09:25:29;4.28;;;2.97;;
41923;SDS011;27613;48.116;11.656;2023-06-26T09:27:57;3.88;;;2.92;;
41923;SDS011;27613;48.116;11.656;2023-06-26T09:30:22;3.58;;;2.78;;
41923;SDS011;27613;48.116;11.656;2023-06-26T09:32:48;4.55;;;3.15;;
41923;SDS011;27613;48.116;11.656;2023-06-26T09:35:19;4.13;;;2.60;;
41923;SDS011;27613;48.116;11.656;2023-06-26T09:37:45;4.30;;;2.97;;
41923;SDS011;27613;48.116;11.656;2023-06-26T09:40:13;3.67;;;3.08;;
41923;SDS011;27613;48.116;11.656;2023-06-26T09:42:39;4.68;;;3.05;;
41923;SDS011;27613;48.116;11.656;2023-06-26T09:45:05;3.50;;;2.90;;
41923;SDS011;27613;48.116;11.656;2023-06-26T09:47:32;3.33;;;2.40;;
41923;SDS011;27613;48.116;11.656;2023-06-26T09:49:59;3.67;;;2.80;;
41923;SDS011;27613;48.116;11.656;2023-06-26T09:52:27;3.28;;;2.63;;
41923;SDS011;27613;48.116;11.656;2023-06-26T09:55:08;2.83;;;2.53;;
41923;SDS011;27613;48.116;11.656;2023-06-26T09:57:34;3.05;;;2.40;;
41923;SDS011;27613;48.116;11.656;2023-06-26T10:00:01;3.97;;;2.38;;
41923;SDS011;27613;48.116;11.656;2023-06-26T10:02:29;3.40;;;2.70;;
41923;SDS011;27613;48.116;11.656;2023-06-26T10:04:54;2.58;;;2.10;;
41923;SDS011;27613;48.116;11.656;2023-06-26T10:07:20;3.40;;;2.58;;
41923;SDS011;27613;48.116;11.656;2023-06-26T10:09:47;4.03;;;2.50;;
41923;SDS011;27613;48.116;11.656;2023-06-26T10:12:28;2.90;;;2.30;;
41923;SDS011;27613;48.116;11.656;2023-06-26T10:14:58;2.40;;;1.92;;
41923;SDS011;27613;48.116;11.656;2023-06-26T10:17:28;2.97;;;2.33;;
41923;SDS011;27613;48.116;11.656;2023-06-26T10:19:55;2.60;;;2.10;;
41923;SDS011;27613;48.116;11.656;2023-06-26T10:22:24;2.38;;;2.03;;
41923;SDS011;27613;48.116;11.656;2023-06-26T10:24:54;2.55;;;2.10;;
41923;SDS011;27613;48.116;11.656;2023-06-26T10:27:23;3.45;;;2.20;;
41923;SDS011;27613;48.116;11.656;2023-06-26T10:29:56;2.40;;;1.80;;
41923;SDS011;27613;48.116;11.656;2023-06-26T10:32:26;2.63;;;2.10;;
41923;SDS011;27613;48.116;11.656;2023-06-26T10:34:52;3.03;;;2.20;;
41923;SDS011;27613;48.116;11.656;2023-06-26T10:37:20;2.30;;;2.03;;
41923;SDS011;27613;48.116;11.656;2023-06-26T10:39:47;3.65;;;2.10;;
41923;SDS011;27613;48.116;11.656;2023-06-26T10:42:20;2.67;;;1.92;;
41923;SDS011;27613;48.116;11.656;2023-06-26T10:44:59;2.45;;;2.08;;
41923;SDS011;27613;48.116;11.656;2023-06-26T10:47:48;2.45;;;1.95;;
41923;SDS011;27613;48.116;11.656;2023-06-26T10:50:22;2.83;;;2.00;;
41923;SDS011;27613;48.116;11.656;2023-06-26T10:53:08;6.68;;;2.05;;
41923;SDS011;27613;48.116;11.656;2023-06-26T11:03:39;4.30;;;2.17;;
41923;SDS011;27613;48.116;11.656;2023-06-26T11:06:13;3.75;;;2.10;;
41923;SDS011;27613;48.116;11.656;2023-06-26T11:11:15;2.60;;;2.17;;
41923;SDS011;27613;48.116;11.656;2023-06-26T11:13:42;2.40;;;1.85;;
41923;SDS011;27613;48.116;11.656;2023-06-26T11:16:10;3.05;;;2.30;;
41923;SDS011;27613;48.116;11.656;2023-06-26T11:18:36;3.15;;;2.20;;
41923;SDS011;27613;48.116;11.656;2023-06-26T11:23:32;3.10;;;2.25;;
41923;SDS011;27613;48.116;11.656;2023-06-26T11:26:12;2.92;;;2.30;;
41923;SDS011;27613;48.116;11.656;2023-06-26T11:28:48;2.60;;;2.00;;
41923;SDS011;27613;48.116;11.656;2023-06-26T11:31:40;3.08;;;2.42;;
41923;SDS011;27613;48.116;11.656;2023-06-26T11:34:07;3.50;;;2.33;;
41923;SDS011;27613;48.116;11.656;2023-06-26T11:36:35;2.72;;;2.10;;
41923;SDS011;27613;48.116;11.656;2023-06-26T11:39:02;2.42;;;1.77;;
41923;SDS011;27613;48.116;11.656;2023-06-26T11:41:30;3.38;;;2.45;;
41923;SDS011;27613;48.116;11.656;2023-06-26T11:44:06;3.50;;;2.30;;
41923;SDS011;27613;48.116;11.656;2023-06-26T11:46:34;2.42;;;2.00;;
41923;SDS011;27613;48.116;11.656;2023-06-26T11:49:00;3.60;;;2.20;;
41923;SDS011;27613;48.116;11.656;2023-06-26T11:51:29;2.90;;;2.17;;
41923;SDS011;27613;48.116;11.656;2023-06-26T11:53:55;3.08;;;2.20;;
41923;SDS011;27613;48.116;11.656;2023-06-26T11:56:20;2.80;;;2.35;;
41923;SDS011;27613;48.116;11.656;2023-06-26T12:04:02;2.33;;;2.10;;
41923;SDS011;27613;48.116;11.656;2023-06-26T12:06:29;2.67;;;2.20;;
41923;SDS011;27613;48.116;11.656;2023-06-26T12:08:58;2.85;;;2.45;;
41923;SDS011;27613;48.116;11.656;2023-06-26T12:11:26;2.88;;;2.30;;
41923;SDS011;27613;48.116;11.656;2023-06-26T12:13:53;3.30;;;2.47;;
41923;SDS011;27613;48.116;11.656;2023-06-26T12:16:19;2.60;;;2.22;;
41923;SDS011;27613;48.116;11.656;2023-06-26T12:18:48;2.95;;;2.58;;
41923;SDS011;27613;48.116;11.656;2023-06-26T12:26:25;2.72;;;2.28;;
41923;SDS011;27613;48.116;11.656;2023-06-26T12:28:51;2.90;;;2.30;;
41923;SDS011;27613;48.116;11.656;2023-06-26T12:31:17;2.65;;;2.22;;
41923;SDS011;27613;48.116;11.656;2023-06-26T12:33:46;2.13;;;1.92;;
41923;SDS011;27613;48.116;11.656;2023-06-26T12:36:13;3.08;;;2.45;;
41923;SDS011;27613;48.116;11.656;2023-06-26T12:38:39;2.50;;;2.20;;
41923;SDS011;27613;48.116;11.656;2023-06-26T12:41:13;2.70;;;2.30;;
41923;SDS011;27613;48.116;11.656;2023-06-26T12:43:39;3.67;;;2.25;;
41923;SDS011;27613;48.116;11.656;2023-06-26T12:46:05;3.33;;;2.55;;
41923;SDS011;27613;48.116;11.656;2023-06-26T12:48:37;2.42;;;2.08;;
41923;SDS011;27613;48.116;11.656;2023-06-26T12:51:09;3.72;;;2.10;;
41923;SDS011;27613;48.116;11.656;2023-06-26T12:53:35;3.00;;;2.20;;
41923;SDS011;27613;48.116;11.656;2023-06-26T12:56:07;2.88;;;2.30;;
41923;SDS011;27613;48.116;11.656;2023-06-26T12:58:33;3.47;;;2.63;;
41923;SDS011;27613;48.116;11.656;2023-06-26T13:01:00;3.92;;;2.63;;
41923;SDS011;27613;48.116;11.656;2023-06-26T13:03:28;4.03;;;2.60;;
41923;SDS011;27613;48.116;11.656;2023-06-26T13:05:53;2.85;;;2.55;;
41923;SDS011;27613;48.116;11.656;2023-06-26T13:08:19;2.78;;;2.45;;
41923;SDS011;27613;48.116;11.656;2023-06-26T13:10:44;3.45;;;2.67;;
41923;SDS011;27613;48.116;11.656;2023-06-26T13:13:10;3.25;;;2.65;;
41923;SDS011;27613;48.116;11.656;2023-06-26T13:15:36;3.13;;;2.53;;
41923;SDS011;27613;48.116;11.656;2023-06-26T13:18:02;3.60;;;2.60;;
41923;SDS011;27613;48.116;11.656;2023-06-26T13:20:28;3.33;;;2.58;;
41923;SDS011;27613;48.116;11.656;2023-06-26T13:22:54;3.00;;;2.42;;
41923;SDS011;27613;48.116;11.656;2023-06-26T13:25:20;3.60;;;2.85;;
41923;SDS011;27613;48.116;11.656;2023-06-26T13:27:46;3.72;;;2.80;;
41923;SDS011;27613;48.116;11.656;2023-06-26T13:30:12;3.05;;;2.58;;
41923;SDS011;27613;48.116;11.656;2023-06-26T13:32:38;3.58;;;2.40;;
41923;SDS011;27613;48.116;11.656;2023-06-26T13:35:04;3.53;;;2.50;;
41923;SDS011;27613;48.116;11.656;2023-06-26T13:37:30;3.22;;;2.60;;
41923;SDS011;27613;48.116;11.656;2023-06-26T13:39:57;4.05;;;3.08;;
41923;SDS011;27613;48.116;11.656;2023-06-26T13:42:24;3.40;;;2.55;;
41923;SDS011;27613;48.116;11.656;2023-06-26T13:44:49;2.92;;;2.63;;
41923;SDS011;27613;48.116;11.656;2023-06-26T13:47:15;4.28;;;2.90;;
41923;SDS011;27613;48.116;11.656;2023-06-26T13:49:41;3.45;;;2.83;;
41923;SDS011;27613;48.116;11.656;2023-06-26T13:52:06;4.05;;;2.78;;
41923;SDS011;27613;48.116;11.656;2023-06-26T13:54:35;4.13;;;3.00;;
41923;SDS011;27613;48.116;11.656;2023-06-26T13:57:04;3.72;;;2.90;;
41923;SDS011;27613;48.116;11.656;2023-06-26T13:59:30;4.80;;;3.13;;
41923;SDS011;27613;48.116;11.656;2023-06-26T14:01:56;5.57;;;3.90;;
41923;SDS011;27613;48.116;11.656;2023-06-26T14:04:21;4.13;;;3.10;;
41923;SDS011;27613;48.116;11.656;2023-06-26T14:06:47;3.17;;;2.80;;
41923;SDS011;27613;48.116;11.656;2023-06-26T14:09:12;3.42;;;3.00;;
41923;SDS011;27613;48.116;11.656;2023-06-26T14:11:38;4.13;;;2.80;;
41923;SDS011;27613;48.116;11.656;2023-06-26T14:14:04;3.58;;;3.05;;
41923;SDS011;27613;48.116;11.656;2023-06-26T14:16:29;5.03;;;3.47;;
41923;SDS011;27613;48.116;11.656;2023-06-26T14:18:55;5.15;;;3.30;;
41923;SDS011;27613;48.116;11.656;2023-06-26T14:21:21;4.28;;;3.20;;
41923;SDS011;27613;48.116;11.656;2023-06-26T14:23:46;4.88;;;3.20;;
41923;SDS011;27613;48.116;11.656;2023-06-26T14:26:12;4.10;;;3.00;;
41923;SDS011;27613;48.116;11.656;2023-06-26T14:28:38;4.57;;;2.97;;
41923;SDS011;27613;48.116;11.656;2023-06-26T14:31:04;3.63;;;2.97;;
41923;SDS011;27613;48.116;11.656;2023-06-26T14:33:30;3.20;;;2.60;;
41923;SDS011;27613;48.116;11.656;2023-06-26T14:35:56;4.07;;;2.67;;
41923;SDS011;27613;48.116;11.656;2023-06-26T14:38:21;3.28;;;2.72;;
41923;SDS011;27613;48.116;11.656;2023-06-26T14:40:47;4.10;;;3.08;;
41923;SDS011;27613;48.116;11.656;2023-06-26T14:43:12;2.85;;;2.40;;
41923;SDS011;27613;48.116;11.656;2023-06-26T14:45:38;3.10;;;2.58;;
41923;SDS011;27613;48.116;11.656;2023-06-26T14:48:04;4.07;;;2.55;;
41923;SDS011;27613;48.116;11.656;2023-06-26T14:50:29;3.83;;;2.83;;
41923;SDS011;27613;48.116;11.656;2023-06-26T14:52:55;4.25;;;2.83;;
41923;SDS011;27613;48.116;11.656;2023-06-26T14:55:20;3.58;;;2.88;;
41923;SDS011;27613;48.116;11.656;2023-06-26T14:57:46;3.17;;;2.72;;